sensor_id;sensor_type;location;lat;lon;timestamp;temperature;humidity
69626;DHT22;56847;51.984;5.088;2024-01-30T00:00:18;10.10;77.80
69626;DHT22;56847;51.984;5.088;2024-01-30T00:02:45;10.10;77.80
69626;DHT22;56847;51.984;5.088;2024-01-30T00:05:13;10.10;77.90
69626;DHT22;56847;51.984;5.088;2024-01-30T00:07:40;10.10;78.00
69626;DHT22;56847;51.984;5.088;2024-01-30T00:10:09;10.10;78.00
69626;DHT22;56847;51.984;5.088;2024-01-30T00:12:40;10.20;78.00
69626;DHT22;56847;51.984;5.088;2024-01-30T00:15:07;10.20;78.10
69626;DHT22;56847;51.984;5.088;2024-01-30T00:17:44;10.20;78.10
69626;DHT22;56847;51.984;5.088;2024-01-30T00:20:12;10.20;78.00
69626;DHT22;56847;51.984;5.088;2024-01-30T00:22:39;10.20;78.00
69626;DHT22;56847;51.984;5.088;2024-01-30T00:25:07;10.20;78.00
69626;DHT22;56847;51.984;5.088;2024-01-30T00:27:35;10.20;78.00
69626;DHT22;56847;51.984;5.088;2024-01-30T00:30:02;10.20;78.10
69626;DHT22;56847;51.984;5.088;2024-01-30T00:32:29;10.20;78.10
69626;DHT22;56847;51.984;5.088;2024-01-30T00:34:57;10.20;78.00
69626;DHT22;56847;51.984;5.088;2024-01-30T00:37:24;10.20;78.10
69626;DHT22;56847;51.984;5.088;2024-01-30T00:39:53;10.20;78.20
69626;DHT22;56847;51.984;5.088;2024-01-30T00:42:21;10.20;78.20
69626;DHT22;56847;51.984;5.088;2024-01-30T00:44:50;10.20;78.10
69626;DHT22;56847;51.984;5.088;2024-01-30T00:47:17;10.10;78.10
69626;DHT22;56847;51.984;5.088;2024-01-30T00:49:45;10.10;78.10
69626;DHT22;56847;51.984;5.088;2024-01-30T00:52:12;10.10;78.10
69626;DHT22;56847;51.984;5.088;2024-01-30T00:54:40;10.10;78.20
69626;DHT22;56847;51.984;5.088;2024-01-30T00:57:07;10.10;78.30
69626;DHT22;56847;51.984;5.088;2024-01-30T00:59:37;10.10;78.30
69626;DHT22;56847;51.984;5.088;2024-01-30T01:02:07;10.10;78.30
69626;DHT22;56847;51.984;5.088;2024-01-30T01:04:34;10.10;78.20
69626;DHT22;56847;51.984;5.088;2024-01-30T01:07:01;10.10;78.30
69626;DHT22;56847;51.984;5.088;2024-01-30T01:09:29;10.10;78.30
69626;DHT22;56847;51.984;5.088;2024-01-30T01:11:56;10.00;78.30
69626;DHT22;56847;51.984;5.088;2024-01-30T01:14:23;10.00;78.30
69626;DHT22;56847;51.984;5.088;2024-01-30T01:16:50;10.00;78.40
69626;DHT22;56847;51.984;5.088;2024-01-30T01:19:17;10.00;78.50
69626;DHT22;56847;51.984;5.088;2024-01-30T01:21:44;10.00;78.50
69626;DHT22;56847;51.984;5.088;2024-01-30T01:24:12;10.00;78.60
69626;DHT22;56847;51.984;5.088;2024-01-30T01:26:45;10.00;78.60
69626;DHT22;56847;51.984;5.088;2024-01-30T01:29:12;10.10;78.60
69626;DHT22;56847;51.984;5.088;2024-01-30T01:31:39;10.10;78.50
69626;DHT22;56847;51.984;5.088;2024-01-30T01:34:11;10.10;78.60
69626;DHT22;56847;51.984;5.088;2024-01-30T01:36:39;10.00;78.60
69626;DHT22;56847;51.984;5.088;2024-01-30T01:39:09;10.00;78.50
69626;DHT22;56847;51.984;5.088;2024-01-30T01:41:41;10.00;78.50
69626;DHT22;56847;51.984;5.088;2024-01-30T01:44:09;10.10;78.40
69626;DHT22;56847;51.984;5.088;2024-01-30T01:46:36;10.00;78.40
69626;DHT22;56847;51.984;5.088;2024-01-30T01:49:05;10.00;78.30
69626;DHT22;56847;51.984;5.088;2024-01-30T01:51:35;10.00;78.30
69626;DHT22;56847;51.984;5.088;2024-01-30T01:54:04;10.00;78.20
69626;DHT22;56847;51.984;5.088;2024-01-30T01:56:33;9.90;78.30
69626;DHT22;56847;51.984;5.088;2024-01-30T01:59:05;9.90;78.40
69626;DHT22;56847;51.984;5.088;2024-01-30T02:01:35;9.90;78.60
69626;DHT22;56847;51.984;5.088;2024-01-30T02:04:04;9.90;78.70
69626;DHT22;56847;51.984;5.088;2024-01-30T02:06:32;9.90;78.70
69626;DHT22;56847;51.984;5.088;2024-01-30T02:09:03;9.90;78.80
69626;DHT22;56847;51.984;5.088;2024-01-30T02:11:31;9.90;78.60
69626;DHT22;56847;51.984;5.088;2024-01-30T02:14:03;9.90;78.60
69626;DHT22;56847;51.984;5.088;2024-01-30T02:16:32;9.90;78.50
69626;DHT22;56847;51.984;5.088;2024-01-30T02:18:59;9.90;78.60
69626;DHT22;56847;51.984;5.088;2024-01-30T02:21:26;9.90;78.60
69626;DHT22;56847;51.984;5.088;2024-01-30T02:23:54;9.90;78.60
69626;DHT22;56847;51.984;5.088;2024-01-30T02:26:23;9.90;78.70
69626;DHT22;56847;51.984;5.088;2024-01-30T02:28:50;10.00;78.70
69626;DHT22;56847;51.984;5.088;2024-01-30T02:31:17;9.90;78.60
69626;DHT22;56847;51.984;5.088;2024-01-30T02:33:47;10.00;78.50
69626;DHT22;56847;51.984;5.088;2024-01-30T02:36:17;9.90;78.40
69626;DHT22;56847;51.984;5.088;2024-01-30T02:38:44;10.00;78.40
69626;DHT22;56847;51.984;5.088;2024-01-30T02:41:16;10.00;78.40
69626;DHT22;56847;51.984;5.088;2024-01-30T02:43:43;9.90;78.40
69626;DHT22;56847;51.984;5.088;2024-01-30T02:46:11;10.00;78.40
69626;DHT22;56847;51.984;5.088;2024-01-30T02:48:41;9.90;78.40
69626;DHT22;56847;51.984;5.088;2024-01-30T02:51:08;9.90;78.40
69626;DHT22;56847;51.984;5.088;2024-01-30T02:53:38;9.90;78.50
69626;DHT22;56847;51.984;5.088;2024-01-30T02:56:05;9.90;78.60
69626;DHT22;56847;51.984;5.088;2024-01-30T02:58:32;9.90;78.60
69626;DHT22;56847;51.984;5.088;2024-01-30T03:01:00;10.00;78.60
69626;DHT22;56847;51.984;5.088;2024-01-30T03:03:27;10.00;78.70
69626;DHT22;56847;51.984;5.088;2024-01-30T03:05:55;10.00;78.80
69626;DHT22;56847;51.984;5.088;2024-01-30T03:08:22;10.00;78.90
69626;DHT22;56847;51.984;5.088;2024-01-30T03:10:49;10.00;78.90
69626;DHT22;56847;51.984;5.088;2024-01-30T03:13:16;10.10;78.90
69626;DHT22;56847;51.984;5.088;2024-01-30T03:15:43;10.10;79.00
69626;DHT22;56847;51.984;5.088;2024-01-30T03:18:10;10.10;78.90
69626;DHT22;56847;51.984;5.088;2024-01-30T03:20:37;10.10;79.00
69626;DHT22;56847;51.984;5.088;2024-01-30T03:23:04;10.10;79.00
69626;DHT22;56847;51.984;5.088;2024-01-30T03:25:31;10.20;78.90
69626;DHT22;56847;51.984;5.088;2024-01-30T03:27:58;10.20;78.90
69626;DHT22;56847;51.984;5.088;2024-01-30T03:30:25;10.20;78.90
69626;DHT22;56847;51.984;5.088;2024-01-30T03:32:52;10.20;78.80
69626;DHT22;56847;51.984;5.088;2024-01-30T03:35:19;10.20;78.80
69626;DHT22;56847;51.984;5.088;2024-01-30T03:37:46;10.20;78.80
69626;DHT22;56847;51.984;5.088;2024-01-30T03:40:13;10.30;78.90
69626;DHT22;56847;51.984;5.088;2024-01-30T03:42:43;10.30;78.90
69626;DHT22;56847;51.984;5.088;2024-01-30T03:45:10;10.30;78.90
69626;DHT22;56847;51.984;5.088;2024-01-30T03:47:37;10.30;78.90
69626;DHT22;56847;51.984;5.088;2024-01-30T03:50:04;10.30;78.90
69626;DHT22;56847;51.984;5.088;2024-01-30T03:52:34;10.30;78.90
69626;DHT22;56847;51.984;5.088;2024-01-30T03:55:01;10.30;78.90
69626;DHT22;56847;51.984;5.088;2024-01-30T03:57:28;10.40;78.80
69626;DHT22;56847;51.984;5.088;2024-01-30T03:59:55;10.40;78.80
69626;DHT22;56847;51.984;5.088;2024-01-30T04:02:23;10.40;78.80
69626;DHT22;56847;51.984;5.088;2024-01-30T04:04:50;10.30;78.70
69626;DHT22;56847;51.984;5.088;2024-01-30T04:07:17;10.30;78.70
69626;DHT22;56847;51.984;5.088;2024-01-30T04:09:48;10.30;78.80
69626;DHT22;56847;51.984;5.088;2024-01-30T04:12:15;10.40;78.80
69626;DHT22;56847;51.984;5.088;2024-01-30T04:14:45;10.40;78.80
69626;DHT22;56847;51.984;5.088;2024-01-30T04:17:14;10.40;78.80
69626;DHT22;56847;51.984;5.088;2024-01-30T04:19:41;10.40;78.80
69626;DHT22;56847;51.984;5.088;2024-01-30T04:22:08;10.40;78.80
69626;DHT22;56847;51.984;5.088;2024-01-30T04:24:35;10.40;78.80
69626;DHT22;56847;51.984;5.088;2024-01-30T04:27:02;10.50;78.90
69626;DHT22;56847;51.984;5.088;2024-01-30T04:29:29;10.50;78.80
69626;DHT22;56847;51.984;5.088;2024-01-30T04:31:56;10.50;78.70
69626;DHT22;56847;51.984;5.088;2024-01-30T04:34:23;10.50;78.70
69626;DHT22;56847;51.984;5.088;2024-01-30T04:36:50;10.50;78.70
69626;DHT22;56847;51.984;5.088;2024-01-30T04:39:17;10.50;78.60
69626;DHT22;56847;51.984;5.088;2024-01-30T04:41:50;10.50;78.70
69626;DHT22;56847;51.984;5.088;2024-01-30T04:44:17;10.50;78.70
69626;DHT22;56847;51.984;5.088;2024-01-30T04:46:44;10.60;78.70
69626;DHT22;56847;51.984;5.088;2024-01-30T04:49:11;10.60;78.70
69626;DHT22;56847;51.984;5.088;2024-01-30T04:51:39;10.60;78.70
69626;DHT22;56847;51.984;5.088;2024-01-30T04:54:06;10.60;78.80
69626;DHT22;56847;51.984;5.088;2024-01-30T04:56:32;10.60;78.70
69626;DHT22;56847;51.984;5.088;2024-01-30T04:59:03;10.60;78.80
69626;DHT22;56847;51.984;5.088;2024-01-30T05:01:30;10.60;78.70
69626;DHT22;56847;51.984;5.088;2024-01-30T05:03:57;10.70;78.70
69626;DHT22;56847;51.984;5.088;2024-01-30T05:06:27;10.70;78.70
69626;DHT22;56847;51.984;5.088;2024-01-30T05:08:54;10.70;78.70
69626;DHT22;56847;51.984;5.088;2024-01-30T05:11:21;10.70;78.70
69626;DHT22;56847;51.984;5.088;2024-01-30T05:13:51;10.70;78.70
69626;DHT22;56847;51.984;5.088;2024-01-30T05:16:18;10.70;78.80
69626;DHT22;56847;51.984;5.088;2024-01-30T05:18:45;10.70;78.90
69626;DHT22;56847;51.984;5.088;2024-01-30T05:21:12;10.70;78.90
69626;DHT22;56847;51.984;5.088;2024-01-30T05:23:42;10.80;79.00
69626;DHT22;56847;51.984;5.088;2024-01-30T05:26:09;10.80;79.00
69626;DHT22;56847;51.984;5.088;2024-01-30T05:28:36;10.80;78.90
69626;DHT22;56847;51.984;5.088;2024-01-30T05:31:03;10.80;79.00
69626;DHT22;56847;51.984;5.088;2024-01-30T05:33:30;10.80;79.10
69626;DHT22;56847;51.984;5.088;2024-01-30T05:35:57;10.90;79.10
69626;DHT22;56847;51.984;5.088;2024-01-30T05:38:24;10.90;79.10
69626;DHT22;56847;51.984;5.088;2024-01-30T05:40:51;10.90;79.10
69626;DHT22;56847;51.984;5.088;2024-01-30T05:43:21;10.90;79.10
69626;DHT22;56847;51.984;5.088;2024-01-30T05:45:50;11.00;79.10
69626;DHT22;56847;51.984;5.088;2024-01-30T05:48:18;11.00;79.20
69626;DHT22;56847;51.984;5.088;2024-01-30T05:50:45;11.00;79.20
69626;DHT22;56847;51.984;5.088;2024-01-30T05:53:13;11.10;79.20
69626;DHT22;56847;51.984;5.088;2024-01-30T05:55:40;11.10;79.20
69626;DHT22;56847;51.984;5.088;2024-01-30T05:58:07;11.10;79.20
69626;DHT22;56847;51.984;5.088;2024-01-30T06:00:34;11.10;79.30
69626;DHT22;56847;51.984;5.088;2024-01-30T06:03:01;11.20;79.30
69626;DHT22;56847;51.984;5.088;2024-01-30T06:05:28;11.20;79.30
69626;DHT22;56847;51.984;5.088;2024-01-30T06:07:59;11.20;79.30
69626;DHT22;56847;51.984;5.088;2024-01-30T06:10:26;11.20;79.30
69626;DHT22;56847;51.984;5.088;2024-01-30T06:12:53;11.30;79.20
69626;DHT22;56847;51.984;5.088;2024-01-30T06:15:20;11.30;79.30
69626;DHT22;56847;51.984;5.088;2024-01-30T06:17:49;11.30;79.30
69626;DHT22;56847;51.984;5.088;2024-01-30T06:20:16;11.30;79.30
69626;DHT22;56847;51.984;5.088;2024-01-30T06:22:43;11.40;79.30
69626;DHT22;56847;51.984;5.088;2024-01-30T06:25:10;11.40;79.20
69626;DHT22;56847;51.984;5.088;2024-01-30T06:27:39;11.40;79.20
69626;DHT22;56847;51.984;5.088;2024-01-30T06:30:06;11.40;79.10
69626;DHT22;56847;51.984;5.088;2024-01-30T06:32:33;11.40;79.10
69626;DHT22;56847;51.984;5.088;2024-01-30T06:35:01;11.40;79.20
69626;DHT22;56847;51.984;5.088;2024-01-30T06:37:29;11.50;79.10
69626;DHT22;56847;51.984;5.088;2024-01-30T06:39:56;11.50;79.10
69626;DHT22;56847;51.984;5.088;2024-01-30T06:42:23;11.50;79.10
69626;DHT22;56847;51.984;5.088;2024-01-30T06:44:50;11.50;79.10
69626;DHT22;56847;51.984;5.088;2024-01-30T06:47:16;11.50;79.00
69626;DHT22;56847;51.984;5.088;2024-01-30T06:49:43;11.50;79.00
69626;DHT22;56847;51.984;5.088;2024-01-30T06:52:15;11.50;78.90
69626;DHT22;56847;51.984;5.088;2024-01-30T06:54:42;11.50;78.90
69626;DHT22;56847;51.984;5.088;2024-01-30T06:57:09;11.50;78.90
69626;DHT22;56847;51.984;5.088;2024-01-30T06:59:51;11.50;78.90
69626;DHT22;56847;51.984;5.088;2024-01-30T07:02:21;11.50;78.80
69626;DHT22;56847;51.984;5.088;2024-01-30T07:04:48;11.50;78.70
69626;DHT22;56847;51.984;5.088;2024-01-30T07:07:18;11.50;78.90
69626;DHT22;56847;51.984;5.088;2024-01-30T07:09:48;11.50;78.80
69626;DHT22;56847;51.984;5.088;2024-01-30T07:12:21;11.50;78.80
69626;DHT22;56847;51.984;5.088;2024-01-30T07:14:48;11.50;78.80
69626;DHT22;56847;51.984;5.088;2024-01-30T07:17:18;11.50;78.70
69626;DHT22;56847;51.984;5.088;2024-01-30T07:19:48;11.50;78.70
69626;DHT22;56847;51.984;5.088;2024-01-30T07:22:18;11.50;78.80
69626;DHT22;56847;51.984;5.088;2024-01-30T07:24:45;11.50;78.70
69626;DHT22;56847;51.984;5.088;2024-01-30T07:27:27;11.50;78.80
69626;DHT22;56847;51.984;5.088;2024-01-30T07:29:58;11.50;78.80
69626;DHT22;56847;51.984;5.088;2024-01-30T07:32:30;11.60;78.90
69626;DHT22;56847;51.984;5.088;2024-01-30T07:35:04;11.60;79.00
69626;DHT22;56847;51.984;5.088;2024-01-30T07:37:35;11.60;79.00
69626;DHT22;56847;51.984;5.088;2024-01-30T07:40:06;11.70;79.00
69626;DHT22;56847;51.984;5.088;2024-01-30T07:42:33;11.70;79.00
69626;DHT22;56847;51.984;5.088;2024-01-30T07:45:01;11.70;79.00
69626;DHT22;56847;51.984;5.088;2024-01-30T07:48:03;11.80;79.00
69626;DHT22;56847;51.984;5.088;2024-01-30T07:50:33;11.80;78.90
69626;DHT22;56847;51.984;5.088;2024-01-30T07:53:00;11.80;78.80
69626;DHT22;56847;51.984;5.088;2024-01-30T07:55:28;11.80;78.80
69626;DHT22;56847;51.984;5.088;2024-01-30T07:57:58;11.80;78.80
69626;DHT22;56847;51.984;5.088;2024-01-30T08:00:30;11.90;78.80
69626;DHT22;56847;51.984;5.088;2024-01-30T08:03:01;11.90;78.80
69626;DHT22;56847;51.984;5.088;2024-01-30T08:05:42;11.90;78.70
69626;DHT22;56847;51.984;5.088;2024-01-30T08:08:20;11.90;78.80
69626;DHT22;56847;51.984;5.088;2024-01-30T08:11:08;12.00;78.80
69626;DHT22;56847;51.984;5.088;2024-01-30T08:13:35;12.00;78.80
69626;DHT22;56847;51.984;5.088;2024-01-30T08:16:03;12.10;78.90
69626;DHT22;56847;51.984;5.088;2024-01-30T08:18:31;12.10;78.90
69626;DHT22;56847;51.984;5.088;2024-01-30T08:21:08;12.20;78.80
69626;DHT22;56847;51.984;5.088;2024-01-30T08:23:39;12.20;78.80
69626;DHT22;56847;51.984;5.088;2024-01-30T08:26:09;12.30;78.80
69626;DHT22;56847;51.984;5.088;2024-01-30T08:28:36;12.30;78.70
69626;DHT22;56847;51.984;5.088;2024-01-30T08:31:03;12.30;78.70
69626;DHT22;56847;51.984;5.088;2024-01-30T08:33:31;12.40;78.70
69626;DHT22;56847;51.984;5.088;2024-01-30T08:35:58;12.40;78.60
69626;DHT22;56847;51.984;5.088;2024-01-30T08:38:25;12.40;78.50
69626;DHT22;56847;51.984;5.088;2024-01-30T08:40:52;12.50;78.50
69626;DHT22;56847;51.984;5.088;2024-01-30T08:43:19;12.50;78.70
69626;DHT22;56847;51.984;5.088;2024-01-30T08:45:46;12.50;78.90
69626;DHT22;56847;51.984;5.088;2024-01-30T08:48:13;12.60;79.00
69626;DHT22;56847;51.984;5.088;2024-01-30T08:50:40;12.70;78.80
69626;DHT22;56847;51.984;5.088;2024-01-30T08:53:07;12.80;78.70
69626;DHT22;56847;51.984;5.088;2024-01-30T08:55:34;12.80;78.60
69626;DHT22;56847;51.984;5.088;2024-01-30T08:58:01;12.80;78.50
69626;DHT22;56847;51.984;5.088;2024-01-30T09:00:30;12.90;78.30
69626;DHT22;56847;51.984;5.088;2024-01-30T09:03:00;12.90;78.20
69626;DHT22;56847;51.984;5.088;2024-01-30T09:05:27;12.90;78.10
69626;DHT22;56847;51.984;5.088;2024-01-30T09:07:57;12.90;78.00
69626;DHT22;56847;51.984;5.088;2024-01-30T09:10:27;12.90;78.00
69626;DHT22;56847;51.984;5.088;2024-01-30T09:12:54;12.90;78.00
69626;DHT22;56847;51.984;5.088;2024-01-30T09:15:22;12.90;77.90
69626;DHT22;56847;51.984;5.088;2024-01-30T09:17:52;12.90;77.90
69626;DHT22;56847;51.984;5.088;2024-01-30T09:20:19;12.90;78.00
69626;DHT22;56847;51.984;5.088;2024-01-30T09:22:47;12.90;78.00
69626;DHT22;56847;51.984;5.088;2024-01-30T09:25:14;13.00;78.10
69626;DHT22;56847;51.984;5.088;2024-01-30T09:27:41;13.00;78.10
69626;DHT22;56847;51.984;5.088;2024-01-30T09:30:11;13.00;78.20
69626;DHT22;56847;51.984;5.088;2024-01-30T09:32:39;13.10;78.40
69626;DHT22;56847;51.984;5.088;2024-01-30T09:35:07;13.20;78.40
69626;DHT22;56847;51.984;5.088;2024-01-30T09:37:34;13.20;78.40
69626;DHT22;56847;51.984;5.088;2024-01-30T09:40:02;13.40;78.40
69626;DHT22;56847;51.984;5.088;2024-01-30T09:42:36;13.50;78.00
69626;DHT22;56847;51.984;5.088;2024-01-30T09:45:05;13.50;77.70
69626;DHT22;56847;51.984;5.088;2024-01-30T09:47:43;13.60;77.60
69626;DHT22;56847;51.984;5.088;2024-01-30T09:50:13;13.60;77.40
69626;DHT22;56847;51.984;5.088;2024-01-30T09:52:46;13.60;77.30
69626;DHT22;56847;51.984;5.088;2024-01-30T09:55:17;13.60;77.30
69626;DHT22;56847;51.984;5.088;2024-01-30T09:57:47;13.70;77.30
69626;DHT22;56847;51.984;5.088;2024-01-30T10:00:14;13.70;77.20
69626;DHT22;56847;51.984;5.088;2024-01-30T10:02:42;13.70;77.10
69626;DHT22;56847;51.984;5.088;2024-01-30T10:05:11;13.80;76.90
69626;DHT22;56847;51.984;5.088;2024-01-30T10:07:55;13.90;77.10
69626;DHT22;56847;51.984;5.088;2024-01-30T10:10:32;14.00;76.80
69626;DHT22;56847;51.984;5.088;2024-01-30T10:12:59;14.10;76.90
69626;DHT22;56847;51.984;5.088;2024-01-30T10:15:31;14.10;76.60
69626;DHT22;56847;51.984;5.088;2024-01-30T10:18:02;14.20;76.40
69626;DHT22;56847;51.984;5.088;2024-01-30T10:20:30;14.30;76.20
69626;DHT22;56847;51.984;5.088;2024-01-30T10:22:57;14.30;75.80
69626;DHT22;56847;51.984;5.088;2024-01-30T10:25:25;14.40;75.70
69626;DHT22;56847;51.984;5.088;2024-01-30T10:27:53;14.40;75.40
69626;DHT22;56847;51.984;5.088;2024-01-30T10:30:23;14.40;75.20
69626;DHT22;56847;51.984;5.088;2024-01-30T10:32:51;14.30;74.90
69626;DHT22;56847;51.984;5.088;2024-01-30T10:35:18;14.30;74.80
69626;DHT22;56847;51.984;5.088;2024-01-30T10:37:47;14.30;74.80
69626;DHT22;56847;51.984;5.088;2024-01-30T10:40:15;14.30;74.90
69626;DHT22;56847;51.984;5.088;2024-01-30T10:42:43;14.30;74.90
69626;DHT22;56847;51.984;5.088;2024-01-30T10:45:12;14.30;74.70
69626;DHT22;56847;51.984;5.088;2024-01-30T10:47:43;14.30;74.90
69626;DHT22;56847;51.984;5.088;2024-01-30T10:50:10;14.30;74.90
69626;DHT22;56847;51.984;5.088;2024-01-30T10:52:39;14.40;74.60
69626;DHT22;56847;51.984;5.088;2024-01-30T10:55:07;14.40;74.30
69626;DHT22;56847;51.984;5.088;2024-01-30T10:57:35;14.40;73.90
69626;DHT22;56847;51.984;5.088;2024-01-30T11:00:08;14.30;73.80
69626;DHT22;56847;51.984;5.088;2024-01-30T11:02:41;14.30;73.70
69626;DHT22;56847;51.984;5.088;2024-01-30T11:05:09;14.20;73.60
69626;DHT22;56847;51.984;5.088;2024-01-30T11:07:39;14.20;73.40
69626;DHT22;56847;51.984;5.088;2024-01-30T11:10:12;14.10;73.20
69626;DHT22;56847;51.984;5.088;2024-01-30T11:12:42;14.10;73.10
69626;DHT22;56847;51.984;5.088;2024-01-30T11:15:15;14.10;72.80
69626;DHT22;56847;51.984;5.088;2024-01-30T11:20:21;14.00;71.80
69626;DHT22;56847;51.984;5.088;2024-01-30T11:22:52;13.90;71.10
69626;DHT22;56847;51.984;5.088;2024-01-30T11:25:21;13.90;71.30
69626;DHT22;56847;51.984;5.088;2024-01-30T11:27:54;13.90;71.60
69626;DHT22;56847;51.984;5.088;2024-01-30T11:33:13;13.90;71.60
69626;DHT22;56847;51.984;5.088;2024-01-30T11:35:42;13.80;71.70
69626;DHT22;56847;51.984;5.088;2024-01-30T11:38:15;13.90;71.80
69626;DHT22;56847;51.984;5.088;2024-01-30T11:40:43;13.90;71.70
69626;DHT22;56847;51.984;5.088;2024-01-30T11:43:13;13.90;71.50
69626;DHT22;56847;51.984;5.088;2024-01-30T11:45:40;13.90;71.50
69626;DHT22;56847;51.984;5.088;2024-01-30T11:48:07;14.00;71.40
69626;DHT22;56847;51.984;5.088;2024-01-30T11:50:38;14.00;70.40
69626;DHT22;56847;51.984;5.088;2024-01-30T11:53:09;14.00;70.00
69626;DHT22;56847;51.984;5.088;2024-01-30T11:55:40;13.90;69.50
69626;DHT22;56847;51.984;5.088;2024-01-30T11:58:10;13.90;69.00
69626;DHT22;56847;51.984;5.088;2024-01-30T12:00:37;13.80;68.80
69626;DHT22;56847;51.984;5.088;2024-01-30T12:03:05;13.80;68.80
69626;DHT22;56847;51.984;5.088;2024-01-30T12:05:37;13.70;68.40
69626;DHT22;56847;51.984;5.088;2024-01-30T12:08:17;13.60;68.40
69626;DHT22;56847;51.984;5.088;2024-01-30T12:10:44;13.40;68.70
69626;DHT22;56847;51.984;5.088;2024-01-30T12:13:11;13.40;69.00
69626;DHT22;56847;51.984;5.088;2024-01-30T12:15:39;13.30;69.20
69626;DHT22;56847;51.984;5.088;2024-01-30T12:18:07;13.20;69.50
69626;DHT22;56847;51.984;5.088;2024-01-30T12:20:35;13.20;69.60
69626;DHT22;56847;51.984;5.088;2024-01-30T12:23:05;13.10;69.80
69626;DHT22;56847;51.984;5.088;2024-01-30T12:25:36;13.00;70.20
69626;DHT22;56847;51.984;5.088;2024-01-30T12:28:03;13.00;70.10
69626;DHT22;56847;51.984;5.088;2024-01-30T12:30:31;12.90;69.90
69626;DHT22;56847;51.984;5.088;2024-01-30T12:33:00;12.80;70.00
69626;DHT22;56847;51.984;5.088;2024-01-30T12:35:28;12.80;70.20
69626;DHT22;56847;51.984;5.088;2024-01-30T12:37:59;12.70;70.30
69626;DHT22;56847;51.984;5.088;2024-01-30T12:40:26;12.80;70.50
69626;DHT22;56847;51.984;5.088;2024-01-30T12:42:54;12.80;70.40
69626;DHT22;56847;51.984;5.088;2024-01-30T12:45:21;12.80;70.40
69626;DHT22;56847;51.984;5.088;2024-01-30T12:47:50;12.80;70.10
69626;DHT22;56847;51.984;5.088;2024-01-30T12:50:17;12.80;70.00
69626;DHT22;56847;51.984;5.088;2024-01-30T12:52:46;12.80;70.30
69626;DHT22;56847;51.984;5.088;2024-01-30T12:55:16;12.70;70.30
69626;DHT22;56847;51.984;5.088;2024-01-30T12:57:44;12.80;70.40
69626;DHT22;56847;51.984;5.088;2024-01-30T13:00:11;12.80;70.30
69626;DHT22;56847;51.984;5.088;2024-01-30T13:02:39;12.80;70.40
69626;DHT22;56847;51.984;5.088;2024-01-30T13:05:06;12.80;70.80
69626;DHT22;56847;51.984;5.088;2024-01-30T13:07:35;12.90;70.60
69626;DHT22;56847;51.984;5.088;2024-01-30T13:10:03;12.90;70.40
69626;DHT22;56847;51.984;5.088;2024-01-30T13:12:38;12.90;70.20
69626;DHT22;56847;51.984;5.088;2024-01-30T13:15:05;12.90;70.30
69626;DHT22;56847;51.984;5.088;2024-01-30T13:17:33;12.90;70.20
69626;DHT22;56847;51.984;5.088;2024-01-30T13:20:00;12.80;70.40
69626;DHT22;56847;51.984;5.088;2024-01-30T13:22:37;12.80;70.50
69626;DHT22;56847;51.984;5.088;2024-01-30T13:25:07;12.80;70.60
69626;DHT22;56847;51.984;5.088;2024-01-30T13:27:36;12.70;70.90
69626;DHT22;56847;51.984;5.088;2024-01-30T13:30:06;12.70;71.10
69626;DHT22;56847;51.984;5.088;2024-01-30T13:32:33;12.60;71.50
69626;DHT22;56847;51.984;5.088;2024-01-30T13:35:00;12.60;71.60
69626;DHT22;56847;51.984;5.088;2024-01-30T13:37:30;12.60;71.70
69626;DHT22;56847;51.984;5.088;2024-01-30T13:39:57;12.60;71.90
69626;DHT22;56847;51.984;5.088;2024-01-30T13:42:25;12.50;72.10
69626;DHT22;56847;51.984;5.088;2024-01-30T13:44:56;12.60;72.20
69626;DHT22;56847;51.984;5.088;2024-01-30T13:47:23;12.60;72.40
69626;DHT22;56847;51.984;5.088;2024-01-30T13:49:50;12.70;72.20
69626;DHT22;56847;51.984;5.088;2024-01-30T13:52:18;12.70;72.20
69626;DHT22;56847;51.984;5.088;2024-01-30T13:54:48;12.70;71.80
69626;DHT22;56847;51.984;5.088;2024-01-30T13:57:15;12.70;71.80
69626;DHT22;56847;51.984;5.088;2024-01-30T13:59:42;12.60;71.60
69626;DHT22;56847;51.984;5.088;2024-01-30T14:02:09;12.60;71.70
69626;DHT22;56847;51.984;5.088;2024-01-30T14:04:37;12.60;71.70
69626;DHT22;56847;51.984;5.088;2024-01-30T14:07:05;12.60;71.80
69626;DHT22;56847;51.984;5.088;2024-01-30T14:09:36;12.60;71.70
69626;DHT22;56847;51.984;5.088;2024-01-30T14:12:05;12.60;71.80
69626;DHT22;56847;51.984;5.088;2024-01-30T14:14:34;12.50;71.90
69626;DHT22;56847;51.984;5.088;2024-01-30T14:17:02;12.50;72.00
69626;DHT22;56847;51.984;5.088;2024-01-30T14:19:34;12.40;72.10
69626;DHT22;56847;51.984;5.088;2024-01-30T14:22:04;12.30;72.40
69626;DHT22;56847;51.984;5.088;2024-01-30T14:24:31;12.30;72.50
69626;DHT22;56847;51.984;5.088;2024-01-30T14:26:58;12.20;72.80
69626;DHT22;56847;51.984;5.088;2024-01-30T14:29:26;12.10;73.20
69626;DHT22;56847;51.984;5.088;2024-01-30T14:31:53;12.00;73.50
69626;DHT22;56847;51.984;5.088;2024-01-30T14:34:21;12.00;73.90
69626;DHT22;56847;51.984;5.088;2024-01-30T14:36:49;11.90;74.20
69626;DHT22;56847;51.984;5.088;2024-01-30T14:39:19;11.80;74.60
69626;DHT22;56847;51.984;5.088;2024-01-30T14:41:46;11.70;74.90
69626;DHT22;56847;51.984;5.088;2024-01-30T14:44:13;11.70;75.30
69626;DHT22;56847;51.984;5.088;2024-01-30T14:46:43;11.60;75.80
69626;DHT22;56847;51.984;5.088;2024-01-30T14:49:10;11.50;76.00
69626;DHT22;56847;51.984;5.088;2024-01-30T14:51:37;11.50;76.40
69626;DHT22;56847;51.984;5.088;2024-01-30T14:54:04;11.40;76.80
69626;DHT22;56847;51.984;5.088;2024-01-30T14:56:31;11.30;77.10
69626;DHT22;56847;51.984;5.088;2024-01-30T14:59:01;11.30;77.30
69626;DHT22;56847;51.984;5.088;2024-01-30T15:01:28;11.20;77.60
69626;DHT22;56847;51.984;5.088;2024-01-30T15:03:55;11.20;77.80
69626;DHT22;56847;51.984;5.088;2024-01-30T15:06:23;11.20;77.90
69626;DHT22;56847;51.984;5.088;2024-01-30T15:08:52;11.20;78.00
69626;DHT22;56847;51.984;5.088;2024-01-30T15:11:20;11.20;78.10
69626;DHT22;56847;51.984;5.088;2024-01-30T15:13:53;11.20;78.20
69626;DHT22;56847;51.984;5.088;2024-01-30T15:16:23;11.20;78.20
69626;DHT22;56847;51.984;5.088;2024-01-30T15:18:50;11.20;78.40
69626;DHT22;56847;51.984;5.088;2024-01-30T15:21:21;11.20;78.60
69626;DHT22;56847;51.984;5.088;2024-01-30T15:23:51;11.10;78.70
69626;DHT22;56847;51.984;5.088;2024-01-30T15:26:18;11.10;79.00
69626;DHT22;56847;51.984;5.088;2024-01-30T15:28:45;11.10;79.10
69626;DHT22;56847;51.984;5.088;2024-01-30T15:31:12;11.10;79.20
69626;DHT22;56847;51.984;5.088;2024-01-30T15:33:40;11.00;79.40
69626;DHT22;56847;51.984;5.088;2024-01-30T15:36:11;11.00;79.60
69626;DHT22;56847;51.984;5.088;2024-01-30T15:38:41;11.00;79.80
69626;DHT22;56847;51.984;5.088;2024-01-30T15:41:09;10.90;79.90
69626;DHT22;56847;51.984;5.088;2024-01-30T15:43:45;10.90;80.20
69626;DHT22;56847;51.984;5.088;2024-01-30T15:46:12;10.90;80.50